createdAt,value
2022-09-12T00:00:37.041Z,1.17
2022-09-12T00:01:41.642Z,1.55
2022-09-12T00:02:46.235Z,1.49
2022-09-12T00:03:56.187Z,1.55
2022-09-12T00:05:00.900Z,1.72
2022-09-12T00:06:22.368Z,1.62
2022-09-12T00:07:22.747Z,1.59
2022-09-12T00:08:25.700Z,1.06
2022-09-12T00:09:28.731Z,1.24
2022-09-12T00:10:32.303Z,1.49
2022-09-12T00:11:37.031Z,1.53
2022-09-12T00:12:39.894Z,1.77
2022-09-12T00:13:43.218Z,1.72
2022-09-12T00:14:46.045Z,1.35
2022-09-12T00:15:48.966Z,1.42
2022-09-12T00:16:52.135Z,1.51
2022-09-12T00:17:55.025Z,1.51
2022-09-12T00:18:57.935Z,1.47
2022-09-12T00:20:00.885Z,1.19
2022-09-12T00:21:04.744Z,1.40
2022-09-12T00:22:07.713Z,1.18
2022-09-12T00:23:11.534Z,1.81
2022-09-12T00:24:14.466Z,1.65
2022-09-12T00:25:17.452Z,1.62
2022-09-12T00:26:21.596Z,1.57
2022-09-12T00:27:24.744Z,1.64
2022-09-12T00:28:27.693Z,1.84
2022-09-12T00:29:30.610Z,1.68
2022-09-12T00:30:33.907Z,1.57
2022-09-12T00:31:36.938Z,1.70
2022-09-12T00:32:40.131Z,1.61
2022-09-12T00:33:43.151Z,1.87
2022-09-12T00:34:46.079Z,1.69
2022-09-12T00:35:52.397Z,1.82
2022-09-12T00:36:55.645Z,1.27
2022-09-12T00:37:58.482Z,1.74
2022-09-12T00:39:01.487Z,1.86
2022-09-12T00:40:05.012Z,1.40
2022-09-12T00:41:14.420Z,1.86
2022-09-12T00:42:17.363Z,1.78
2022-09-12T00:43:35.310Z,1.86
2022-09-12T00:44:43.952Z,1.80
2022-09-12T00:45:46.958Z,1.92
2022-09-12T00:46:53.377Z,1.96
2022-09-12T00:47:59.770Z,1.49
2022-09-12T00:49:24.307Z,1.66
2022-09-12T00:50:28.169Z,1.67
2022-09-12T00:51:34.108Z,2.08
2022-09-12T00:52:46.408Z,1.94
2022-09-12T00:53:52.201Z,1.68
2022-09-12T00:55:04.394Z,1.58
2022-09-12T00:56:07.678Z,1.53
2022-09-12T00:57:14.075Z,1.34
2022-09-12T00:58:20.465Z,2.07
2022-09-12T00:59:32.940Z,1.62
2022-09-12T01:00:35.957Z,2.02
2022-09-12T01:01:41.169Z,1.81
2022-09-12T01:02:47.131Z,1.80
2022-09-12T01:03:49.995Z,1.63
2022-09-12T01:04:53.225Z,1.58
2022-09-12T01:06:05.331Z,2.19
2022-09-12T01:07:08.461Z,1.61
2022-09-12T01:08:11.661Z,1.77
2022-09-12T01:09:17.942Z,2.08
2022-09-12T01:10:21.878Z,1.79
2022-09-12T01:11:25.264Z,1.62
2022-09-12T01:12:28.923Z,1.97
2022-09-12T01:13:33.938Z,1.66
2022-09-12T01:14:37.893Z,1.87
2022-09-12T01:15:40.931Z,1.66
2022-09-12T01:16:45.450Z,1.94
2022-09-12T01:18:07.194Z,2.25
2022-09-12T01:19:45.878Z,1.87
2022-09-12T01:21:07.229Z,1.67
2022-09-12T01:22:16.656Z,1.90
2022-09-12T01:23:28.040Z,1.92
2022-09-12T01:24:40.156Z,1.97
2022-09-12T01:26:09.099Z,1.71
2022-09-12T01:27:18.264Z,1.70
2022-09-12T01:28:36.399Z,1.84
2022-09-12T01:30:04.173Z,1.91
2022-09-12T01:31:10.580Z,1.72
2022-09-12T01:32:17.016Z,1.86
2022-09-12T01:33:26.256Z,2.03
2022-09-12T01:34:45.008Z,1.72
2022-09-12T01:36:10.908Z,1.38
2022-09-12T01:37:26.067Z,1.75
2022-09-12T01:38:39.107Z,2.09
2022-09-12T01:40:03.674Z,1.37
2022-09-12T01:41:12.913Z,1.74
2022-09-12T01:42:28.416Z,1.67
2022-09-12T01:43:41.370Z,2.01
2022-09-12T01:44:54.289Z,2.19
2022-09-12T01:46:09.089Z,1.97
2022-09-12T01:47:27.905Z,1.47
2022-09-12T01:48:49.700Z,1.79
2022-09-12T01:49:59.038Z,1.72
2022-09-12T01:51:14.484Z,1.76
2022-09-12T01:52:31.190Z,1.36
2022-09-12T01:53:43.681Z,1.79
2022-09-12T01:54:52.840Z,2.02
2022-09-12T01:55:59.223Z,2.08
2022-09-12T01:57:05.812Z,1.89
2022-09-12T01:58:28.599Z,1.74
2022-09-12T01:59:37.842Z,1.50
2022-09-12T02:00:47.690Z,1.73
2022-09-12T02:01:55.014Z,1.79
2022-09-12T02:03:10.498Z,1.37
2022-09-12T02:04:25.862Z,1.51
2022-09-12T02:05:35.259Z,1.59
2022-09-12T02:06:53.450Z,1.83
2022-09-12T02:08:14.791Z,2.26
2022-09-12T02:09:21.348Z,1.67
2022-09-12T02:10:32.830Z,2.02
2022-09-12T02:11:39.499Z,1.94
2022-09-12T02:12:45.890Z,2.48
2022-09-12T02:13:55.401Z,1.86
2022-09-12T02:15:02.093Z,1.66
2022-09-12T02:16:11.635Z,1.62
2022-09-12T02:17:18.066Z,1.67
2022-09-12T02:18:21.334Z,1.82
2022-09-12T02:19:30.437Z,1.54
2022-09-12T02:20:54.375Z,1.78
2022-09-12T02:21:53.598Z,1.76
2022-09-12T02:22:57.738Z,2.12
2022-09-12T02:24:04.336Z,1.73
2022-09-12T02:25:10.949Z,2.21
2022-09-12T02:26:19.211Z,1.64
2022-09-12T02:27:25.650Z,2.17
2022-09-12T02:28:38.000Z,2.37
2022-09-12T02:29:42.165Z,1.87
2022-09-12T02:31:07.853Z,2.42
2022-09-12T02:32:47.826Z,1.91
2022-09-12T02:34:15.442Z,1.98
2022-09-12T02:35:38.388Z,1.56
2022-09-12T02:36:50.737Z,2.02
2022-09-12T02:38:15.460Z,2.30
2022-09-12T02:39:20.422Z,1.94
2022-09-12T02:40:25.035Z,2.28
2022-09-12T02:41:28.368Z,1.65
2022-09-12T02:42:31.165Z,1.88
2022-09-12T02:43:34.180Z,1.88
2022-09-12T02:44:37.073Z,1.82
2022-09-12T02:45:40.193Z,2.56
2022-09-12T02:46:46.550Z,2.02
2022-09-12T02:47:58.636Z,2.33
2022-09-12T02:49:02.452Z,1.97
2022-09-12T02:50:07.652Z,2.31
2022-09-12T02:51:11.369Z,2.14
2022-09-12T02:52:15.108Z,2.32
2022-09-12T02:53:18.530Z,1.94
2022-09-12T02:54:21.543Z,1.74
2022-09-12T02:55:24.462Z,1.82
2022-09-12T02:56:29.554Z,2.08
2022-09-12T02:57:32.776Z,2.48
2022-09-12T02:58:36.059Z,2.30
2022-09-12T02:59:38.962Z,1.83
2022-09-12T03:00:56.887Z,1.99
2022-09-12T03:02:24.376Z,2.26
2022-09-12T03:03:56.537Z,1.97
2022-09-12T03:05:15.295Z,2.39
2022-09-12T03:06:41.574Z,2.04
2022-09-12T03:07:48.049Z,2.01
2022-09-12T03:09:00.874Z,2.14
2022-09-12T03:10:25.544Z,2.36
2022-09-12T03:11:37.683Z,1.68
2022-09-12T03:13:06.870Z,1.94
2022-09-12T03:14:28.391Z,1.69
2022-09-12T03:15:40.886Z,2.20
2022-09-12T03:17:14.707Z,1.93
2022-09-12T03:18:21.393Z,2.36
2022-09-12T03:19:31.041Z,2.44
2022-09-12T03:20:37.730Z,2.26
2022-09-12T03:21:52.981Z,1.77
2022-09-12T03:23:08.184Z,1.88
2022-09-12T03:24:37.501Z,2.13
2022-09-12T03:25:44.011Z,1.70
2022-09-12T03:26:59.608Z,2.11
2022-09-12T03:28:11.548Z,2.02
2022-09-12T03:29:14.972Z,1.95
2022-09-12T03:30:18.220Z,1.98
2022-09-12T03:31:21.927Z,2.09
2022-09-12T03:32:46.326Z,2.25
2022-09-12T03:33:49.196Z,1.87
2022-09-12T03:34:52.263Z,1.94
2022-09-12T03:35:55.775Z,2.32
2022-09-12T03:36:58.900Z,1.95
2022-09-12T03:38:01.714Z,1.71
2022-09-12T03:39:04.634Z,2.18
2022-09-12T03:40:09.481Z,2.13
2022-09-12T03:41:12.769Z,2.28
2022-09-12T03:42:15.680Z,1.83
2022-09-12T03:43:18.885Z,2.21
2022-09-12T03:44:22.113Z,2.19
2022-09-12T03:45:25.054Z,2.06
2022-09-12T03:46:28.383Z,2.01
2022-09-12T03:47:31.478Z,2.08
2022-09-12T03:48:34.300Z,2.02
2022-09-12T03:49:37.227Z,2.42
2022-09-12T03:50:40.143Z,2.27
2022-09-12T03:51:43.378Z,2.17
2022-09-12T03:52:46.218Z,2.17
2022-09-12T03:53:49.062Z,1.86
2022-09-12T03:54:51.941Z,2.31
2022-09-12T03:55:54.810Z,2.08
2022-09-12T03:56:57.815Z,2.54
2022-09-12T03:58:00.646Z,2.50
2022-09-12T03:59:07.004Z,2.03
2022-09-12T04:00:10.990Z,2.02
2022-09-12T04:01:18.908Z,2.45
2022-09-12T04:02:21.856Z,2.11
2022-09-12T04:03:24.922Z,2.19
2022-09-12T04:04:28.021Z,2.09
2022-09-12T04:05:30.957Z,2.06
2022-09-12T04:06:34.217Z,1.97
2022-09-12T04:07:37.033Z,2.33
2022-09-12T04:08:40.398Z,1.94
2022-09-12T04:09:43.602Z,2.40
2022-09-12T04:10:47.009Z,2.01
2022-09-12T04:11:50.049Z,2.22
2022-09-12T04:12:52.881Z,3.16
2022-09-12T04:13:55.952Z,2.72
2022-09-12T04:14:58.768Z,2.78
2022-09-12T04:16:02.104Z,2.51
2022-09-12T04:17:05.046Z,2.07
2022-09-12T04:18:08.024Z,2.17
2022-09-12T04:19:11.750Z,2.44
2022-09-12T04:20:16.544Z,2.86
2022-09-12T04:21:23.637Z,2.72
2022-09-12T04:22:26.569Z,2.32
2022-09-12T04:23:29.369Z,2.38
2022-09-12T04:24:32.197Z,2.08
2022-09-12T04:25:35.096Z,3.02
2022-09-12T04:26:38.304Z,2.89
2022-09-12T04:27:41.106Z,2.44
2022-09-12T04:28:44.150Z,2.51
2022-09-12T04:29:47.020Z,2.51
2022-09-12T04:30:50.684Z,2.74
2022-09-12T04:31:53.543Z,2.88
2022-09-12T04:32:56.343Z,2.36
2022-09-12T04:34:00.669Z,2.96
2022-09-12T04:35:04.265Z,2.82
2022-09-12T04:36:10.679Z,2.36
2022-09-12T04:37:13.808Z,2.90
2022-09-12T04:38:16.828Z,2.59
2022-09-12T04:39:19.624Z,2.59
2022-09-12T04:40:22.585Z,2.65
2022-09-12T04:41:28.188Z,2.88
2022-09-12T04:42:31.012Z,2.87
2022-09-12T04:43:34.125Z,3.08
2022-09-12T04:44:37.389Z,2.97
2022-09-12T04:45:40.492Z,3.05
2022-09-12T04:46:46.481Z,2.98
2022-09-12T04:47:49.355Z,2.73
2022-09-12T04:48:56.591Z,3.18
2022-09-12T04:49:57.181Z,2.97
2022-09-12T04:51:11.712Z,2.95
2022-09-12T04:52:14.595Z,2.96
2022-09-12T04:53:17.500Z,3.02
2022-09-12T04:54:20.524Z,2.71
2022-09-12T04:55:24.919Z,2.69
2022-09-12T04:56:29.442Z,2.59
2022-09-12T04:57:32.261Z,2.75
2022-09-12T04:58:35.971Z,2.69
2022-09-12T04:59:39.335Z,2.58
2022-09-12T05:00:43.035Z,2.86
2022-09-12T05:01:45.846Z,2.34
2022-09-12T05:02:48.678Z,2.94
2022-09-12T05:03:51.573Z,3.14
2022-09-12T05:04:54.391Z,2.90
2022-09-12T05:05:57.315Z,3.69
2022-09-12T05:07:00.131Z,2.79
2022-09-12T05:08:03.017Z,3.54
2022-09-12T05:09:08.144Z,2.88
2022-09-12T05:10:12.114Z,3.12
2022-09-12T05:11:22.717Z,3.44
2022-09-12T05:12:23.162Z,2.87
2022-09-12T05:13:26.579Z,3.08
2022-09-12T05:14:30.360Z,3.37
2022-09-12T05:15:33.795Z,2.92
2022-09-12T05:16:36.895Z,3.53
2022-09-12T05:17:39.855Z,3.19
2022-09-12T05:18:44.085Z,2.84
2022-09-12T05:19:47.783Z,3.24
2022-09-12T05:20:50.621Z,3.72
2022-09-12T05:21:53.455Z,2.86
2022-09-12T05:22:56.374Z,3.19
2022-09-12T05:23:59.597Z,3.67
2022-09-12T05:25:02.462Z,3.07
2022-09-12T05:26:06.464Z,3.75
2022-09-12T05:27:09.544Z,3.33
2022-09-12T05:28:12.444Z,3.55
2022-09-12T05:29:15.263Z,3.17
2022-09-12T05:30:19.420Z,3.26
2022-09-12T05:31:25.213Z,3.62
2022-09-12T05:32:31.906Z,3.41
2022-09-12T05:33:36.061Z,3.61
2022-09-12T05:34:39.933Z,4.01
2022-09-12T05:35:46.345Z,3.55
2022-09-12T05:36:49.511Z,3.63
2022-09-12T05:37:52.433Z,3.44
2022-09-12T05:38:56.282Z,3.29
2022-09-12T05:39:59.358Z,4.18
2022-09-12T05:41:07.918Z,4.19
2022-09-12T05:42:11.595Z,4.42
2022-09-12T05:43:14.419Z,3.62
2022-09-12T05:44:17.386Z,3.80
2022-09-12T05:45:20.628Z,3.99
2022-09-12T05:46:26.690Z,3.97
2022-09-12T05:47:29.600Z,3.83
2022-09-12T05:48:32.433Z,3.76
2022-09-12T05:49:35.649Z,3.86
2022-09-12T05:50:38.768Z,3.21
2022-09-12T05:51:44.367Z,3.86
2022-09-12T05:52:47.199Z,4.47
2022-09-12T05:53:52.995Z,3.75
2022-09-12T05:54:55.930Z,3.76
2022-09-12T05:56:05.080Z,4.20
2022-09-12T05:57:08.017Z,3.99
2022-09-12T05:58:10.834Z,4.10
2022-09-12T05:59:16.935Z,4.38
2022-09-12T06:00:21.131Z,4.06
2022-09-12T06:01:25.227Z,4.64
2022-09-12T06:02:28.267Z,3.84
2022-09-12T06:03:31.141Z,4.00
2022-09-12T06:04:33.967Z,4.80
2022-09-12T06:05:36.776Z,4.76
2022-09-12T06:06:42.922Z,4.78
2022-09-12T06:07:46.656Z,3.76
2022-09-12T06:08:52.186Z,4.39
2022-09-12T06:09:55.054Z,4.46
2022-09-12T06:11:02.528Z,4.29
2022-09-12T06:12:07.033Z,4.42
2022-09-12T06:13:09.899Z,4.36
2022-09-12T06:14:14.956Z,4.31
2022-09-12T06:15:17.798Z,4.57
2022-09-12T06:16:24.133Z,3.96
2022-09-12T06:17:27.140Z,4.03
2022-09-12T06:18:29.950Z,4.23
2022-09-12T06:19:33.068Z,4.07
2022-09-12T06:20:36.400Z,3.86
2022-09-12T06:21:39.519Z,3.67
2022-09-12T06:22:42.330Z,4.50
2022-09-12T06:23:46.509Z,4.54
2022-09-12T06:24:49.358Z,4.34
2022-09-12T06:25:52.395Z,3.76
2022-09-12T06:26:55.591Z,4.23
2022-09-12T06:27:58.509Z,3.98
2022-09-12T06:29:02.428Z,3.63
2022-09-12T06:30:06.450Z,3.26
2022-09-12T06:31:14.753Z,3.55
2022-09-12T06:32:17.789Z,3.89
2022-09-12T06:33:20.646Z,2.96
2022-09-12T06:34:23.541Z,2.77
2022-09-12T06:35:26.422Z,3.32
2022-09-12T06:36:37.489Z,3.97
2022-09-12T06:37:41.183Z,3.10
2022-09-12T06:38:45.791Z,2.54
2022-09-12T06:39:48.933Z,2.97
2022-09-12T06:40:52.272Z,3.39
2022-09-12T06:41:55.135Z,3.00
2022-09-12T06:42:59.922Z,2.79
2022-09-12T06:44:04.911Z,2.42
2022-09-12T06:45:08.766Z,2.89
2022-09-12T06:46:12.706Z,3.44
2022-09-12T06:47:15.800Z,4.78
2022-09-12T06:48:19.533Z,2.85
2022-09-12T06:49:22.568Z,3.77
2022-09-12T06:50:27.515Z,2.97
2022-09-12T06:51:30.352Z,3.01
2022-09-12T06:52:33.181Z,2.96
2022-09-12T06:53:38.825Z,2.87
2022-09-12T06:54:41.786Z,3.01
2022-09-12T06:55:44.611Z,2.72
2022-09-12T06:56:48.131Z,2.89
2022-09-12T06:57:51.673Z,3.05
2022-09-12T06:58:58.732Z,2.66
2022-09-12T07:00:05.020Z,2.54
2022-09-12T07:01:10.994Z,2.76
2022-09-12T07:02:14.734Z,2.66
2022-09-12T07:03:18.259Z,2.71
2022-09-12T07:04:21.522Z,2.49
2022-09-12T07:05:24.381Z,2.80
2022-09-12T07:06:33.543Z,3.31
2022-09-12T07:07:36.529Z,2.48
2022-09-12T07:08:40.364Z,2.52
2022-09-12T07:09:44.114Z,2.18
2022-09-12T07:10:47.059Z,2.58
2022-09-12T07:11:49.879Z,2.81
2022-09-12T07:12:52.810Z,2.28
2022-09-12T07:13:57.661Z,2.51
2022-09-12T07:15:00.637Z,2.45
2022-09-12T07:16:04.948Z,2.66
2022-09-12T07:17:08.259Z,2.92
2022-09-12T07:18:11.167Z,2.51
2022-09-12T07:19:14.137Z,2.53
2022-09-12T07:20:18.102Z,2.52
2022-09-12T07:21:21.319Z,2.46
2022-09-12T07:22:24.138Z,2.48
2022-09-12T07:23:27.161Z,2.61
2022-09-12T07:24:29.974Z,3.13
2022-09-12T07:25:32.912Z,3.17
2022-09-12T07:26:36.323Z,2.94
2022-09-12T07:27:39.260Z,3.04
2022-09-12T07:28:42.727Z,3.14
2022-09-12T07:29:46.753Z,2.73
2022-09-12T07:30:50.003Z,3.14
2022-09-12T07:31:53.415Z,3.14
2022-09-12T07:32:56.243Z,2.81
2022-09-12T07:33:59.179Z,3.18
2022-09-12T07:35:02.663Z,2.90
2022-09-12T07:36:10.584Z,2.66
2022-09-12T07:37:13.416Z,3.26
2022-09-12T07:38:16.720Z,2.34
2022-09-12T07:39:19.658Z,2.40
2022-09-12T07:40:23.781Z,2.90
2022-09-12T07:41:28.343Z,2.66
2022-09-12T07:42:31.734Z,3.53
2022-09-12T07:43:34.590Z,2.59
2022-09-12T07:44:37.557Z,2.89
2022-09-12T07:45:41.791Z,3.45
2022-09-12T07:46:44.924Z,2.54
2022-09-12T07:47:47.754Z,2.67
2022-09-12T07:48:54.826Z,3.12
2022-09-12T07:49:58.017Z,2.97
2022-09-12T07:51:03.457Z,3.01
2022-09-12T07:52:06.313Z,2.82
2022-09-12T07:53:09.244Z,2.66
2022-09-12T07:54:12.049Z,3.34
2022-09-12T07:55:14.885Z,2.99
2022-09-12T07:56:20.718Z,3.88
2022-09-12T07:57:24.446Z,3.24
2022-09-12T07:58:27.330Z,3.11
2022-09-12T07:59:51.565Z,3.94
2022-09-12T08:00:36.881Z,3.27
2022-09-12T08:01:40.963Z,3.09
2022-09-12T08:02:44.249Z,2.88
2022-09-12T08:03:49.321Z,4.03
2022-09-12T08:04:52.865Z,3.22
2022-09-12T08:06:04.271Z,3.32
2022-09-12T08:07:07.415Z,3.78
2022-09-12T08:08:10.472Z,2.87
2022-09-12T08:09:14.888Z,3.30
2022-09-12T08:10:18.055Z,3.92
2022-09-12T08:11:22.322Z,3.75
2022-09-12T08:12:25.579Z,3.31
2022-09-12T08:13:29.324Z,3.12
2022-09-12T08:14:32.266Z,3.76
2022-09-12T08:15:35.680Z,4.30
2022-09-12T08:16:38.646Z,3.68
2022-09-12T08:17:44.278Z,4.27
2022-09-12T08:18:47.722Z,4.06
2022-09-12T08:19:50.898Z,3.56
2022-09-12T08:21:01.521Z,4.41
2022-09-12T08:22:04.842Z,3.95
2022-09-12T08:23:07.711Z,3.72
2022-09-12T08:24:11.733Z,4.00
2022-09-12T08:25:14.740Z,3.95
2022-09-12T08:26:17.858Z,3.83
2022-09-12T08:27:20.703Z,5.71
2022-09-12T08:28:24.920Z,4.34
2022-09-12T08:29:28.104Z,3.81
2022-09-12T08:30:31.150Z,4.24
2022-09-12T08:32:46.709Z,3.56
2022-09-12T08:33:49.772Z,4.78
2022-09-12T08:34:52.596Z,5.79
2022-09-12T08:35:59.054Z,5.27
2022-09-12T08:37:02.365Z,4.83
2022-09-12T08:38:05.559Z,5.51
2022-09-12T08:39:08.499Z,5.37
2022-09-12T08:40:18.214Z,5.31
2022-09-12T08:41:34.492Z,4.55
2022-09-12T08:42:47.728Z,5.09
2022-09-12T08:44:11.051Z,5.38
2022-09-12T08:45:17.454Z,3.83
2022-09-12T08:46:25.509Z,3.74
2022-09-12T08:47:35.123Z,3.64
2022-09-12T08:48:38.495Z,3.42
2022-09-12T08:49:57.024Z,2.89
2022-09-12T08:51:00.877Z,3.22
2022-09-12T08:52:07.293Z,3.62
2022-09-12T08:54:44.982Z,3.53
2022-09-12T08:55:54.539Z,3.49
2022-09-12T08:57:05.191Z,3.05
2022-09-12T08:58:20.321Z,3.09
2022-09-12T08:59:23.601Z,3.71
2022-09-12T09:00:39.950Z,3.88
2022-09-12T09:01:44.994Z,4.08
2022-09-12T09:03:08.366Z,3.53
2022-09-12T09:04:32.956Z,3.50
2022-09-12T09:05:57.189Z,4.43
2022-09-12T09:07:18.883Z,3.78
2022-09-12T09:08:40.053Z,3.26
2022-09-12T09:10:06.499Z,3.29
2022-09-12T09:11:16.060Z,3.86
2022-09-12T09:12:28.195Z,3.31
2022-09-12T09:14:23.529Z,3.78
2022-09-12T09:15:48.970Z,3.04
2022-09-12T09:16:53.866Z,3.08
2022-09-12T09:18:16.227Z,3.90
2022-09-12T09:19:25.431Z,3.36
2022-09-12T09:20:59.352Z,2.91
2022-09-12T09:22:05.743Z,3.25
2022-09-12T09:23:27.113Z,3.12
2022-09-12T09:24:51.631Z,3.42
2022-09-12T09:26:18.737Z,2.71
2022-09-12T09:27:40.961Z,2.83
2022-09-12T09:28:52.124Z,2.77
2022-09-12T09:29:55.879Z,3.03
2022-09-12T09:30:59.179Z,3.06
2022-09-12T09:32:05.665Z,3.06
2022-09-12T09:33:12.101Z,3.13
2022-09-12T09:34:24.356Z,3.38
2022-09-12T09:35:45.002Z,3.39
2022-09-12T09:37:04.356Z,2.71
2022-09-12T09:38:22.683Z,3.31
2022-09-12T09:39:37.674Z,3.32
2022-09-12T09:40:53.016Z,2.80
2022-09-12T09:42:08.625Z,3.20
2022-09-12T09:43:23.339Z,3.79
2022-09-12T09:44:29.052Z,3.83
2022-09-12T09:45:32.159Z,2.88
2022-09-12T09:46:35.508Z,2.71
2022-09-12T09:47:38.358Z,2.71
2022-09-12T09:48:43.640Z,3.19
2022-09-12T09:49:46.976Z,2.84
2022-09-12T09:50:50.780Z,2.72
2022-09-12T09:51:56.601Z,3.31
2022-09-12T09:53:02.293Z,3.14
2022-09-12T09:54:20.606Z,2.61
2022-09-12T09:55:27.018Z,2.82
2022-09-12T09:56:36.410Z,2.83
2022-09-12T09:57:41.447Z,3.01
2022-09-12T09:58:44.587Z,2.47
2022-09-12T09:59:47.467Z,2.42
2022-09-12T10:00:56.615Z,2.37
2022-09-12T10:02:10.539Z,2.72
2022-09-12T10:03:26.277Z,2.66
2022-09-12T10:04:32.084Z,2.70
2022-09-12T10:05:38.407Z,2.64
2022-09-12T10:06:41.357Z,2.52
2022-09-12T10:07:52.028Z,2.24
2022-09-12T10:09:16.369Z,2.68
2022-09-12T10:10:22.340Z,2.61
2022-09-12T10:11:28.039Z,2.30
2022-09-12T10:12:31.066Z,2.42
2022-09-12T10:13:43.049Z,2.46
2022-09-12T10:14:57.626Z,2.54
2022-09-12T10:16:04.243Z,2.60
2022-09-12T10:17:33.177Z,2.56
2022-09-12T10:18:39.802Z,2.24
2022-09-12T10:19:42.647Z,2.41
2022-09-12T10:20:45.964Z,2.50
2022-09-12T10:21:52.272Z,2.44
2022-09-12T10:22:55.313Z,2.91
2022-09-12T10:24:04.738Z,2.96
2022-09-12T10:25:11.288Z,2.84
2022-09-12T10:26:17.471Z,2.17
2022-09-12T10:27:23.395Z,2.48
2022-09-12T10:28:44.710Z,2.21
2022-09-12T10:29:51.340Z,2.60
2022-09-12T10:30:56.291Z,3.29
2022-09-12T10:33:14.575Z,2.12
2022-09-12T10:34:27.590Z,2.81
2022-09-12T10:35:34.077Z,2.22
2022-09-12T10:36:39.362Z,2.24
2022-09-12T10:37:52.357Z,2.34
2022-09-12T10:39:00.110Z,2.12
2022-09-12T10:40:06.284Z,2.72
2022-09-12T10:41:11.177Z,2.28
2022-09-12T10:42:15.338Z,1.98
2022-09-12T10:43:30.472Z,2.21
2022-09-12T10:44:35.102Z,2.57
2022-09-12T10:45:38.221Z,2.34
2022-09-12T10:46:41.245Z,2.36
2022-09-12T10:47:44.225Z,2.01
2022-09-12T10:48:52.163Z,2.33
2022-09-12T10:49:58.591Z,2.53
2022-09-12T10:51:01.657Z,2.25
2022-09-12T10:52:24.343Z,2.59
2022-09-12T10:53:34.357Z,2.43
2022-09-12T10:54:35.901Z,2.35
2022-09-12T10:55:42.129Z,2.25
2022-09-12T10:56:49.176Z,2.56
2022-09-12T10:57:58.412Z,2.62
2022-09-12T10:59:27.445Z,2.28
2022-09-12T11:00:34.425Z,2.29
2022-09-12T11:01:52.886Z,2.22
2022-09-12T11:03:16.204Z,2.13
2022-09-12T11:04:22.700Z,2.30
2022-09-12T11:05:45.599Z,2.21
2022-09-12T11:07:07.044Z,1.90
2022-09-12T11:08:34.411Z,1.93
2022-09-12T11:10:01.197Z,2.24
2022-09-12T11:11:08.429Z,2.60
2022-09-12T11:12:29.687Z,2.82
2022-09-12T11:13:51.379Z,2.57
2022-09-12T11:15:17.523Z,2.63
2022-09-12T11:16:32.862Z,2.78
2022-09-12T11:17:51.434Z,2.26
2022-09-12T11:19:06.969Z,2.34
2022-09-12T11:20:34.612Z,2.76
2022-09-12T11:21:57.616Z,2.69
2022-09-12T11:23:16.471Z,2.60
2022-09-12T11:24:44.133Z,3.11
2022-09-12T11:26:02.415Z,2.30
2022-09-12T11:27:11.781Z,2.62
2022-09-12T11:28:33.093Z,3.11
2022-09-12T11:29:46.206Z,2.58
2022-09-12T11:30:53.123Z,2.37
2022-09-12T11:32:32.724Z,2.53
2022-09-12T11:33:47.880Z,2.62
2022-09-12T11:35:17.838Z,2.58
2022-09-12T11:36:39.458Z,2.66
2022-09-12T11:38:19.261Z,2.60
2022-09-12T11:39:25.598Z,2.73
2022-09-12T11:40:43.950Z,3.49
2022-09-12T11:41:51.070Z,2.96
2022-09-12T11:42:57.499Z,2.68
2022-09-12T11:44:13.497Z,3.22
2022-09-12T11:45:19.995Z,2.81
2022-09-12T11:46:26.513Z,2.87
2022-09-12T11:47:33.081Z,2.51
2022-09-12T11:49:05.133Z,3.48
2022-09-12T11:50:20.959Z,3.31
2022-09-12T11:51:30.344Z,2.89
2022-09-12T11:52:36.748Z,2.73
2022-09-12T11:53:42.336Z,2.86
2022-09-12T11:55:05.344Z,3.40
2022-09-12T11:56:19.265Z,3.12
2022-09-12T11:57:43.654Z,2.68
2022-09-12T11:58:52.801Z,2.92
2022-09-12T12:00:23.004Z,3.21
2022-09-12T12:01:29.556Z,2.67
2022-09-12T12:02:41.951Z,3.29
2022-09-12T12:03:47.325Z,2.63
2022-09-12T12:05:21.043Z,2.68
2022-09-12T12:06:33.288Z,2.34
2022-09-12T12:07:46.021Z,2.95
2022-09-12T12:08:50.019Z,2.85
2022-09-12T12:09:52.898Z,2.65
2022-09-12T12:10:59.184Z,2.88
2022-09-12T12:12:06.165Z,2.70
2022-09-12T12:13:38.790Z,2.51
2022-09-12T12:14:45.179Z,2.50
2022-09-12T12:16:09.621Z,2.79
2022-09-12T12:17:19.165Z,1.97
2022-09-12T12:18:25.200Z,2.23
2022-09-12T12:19:37.159Z,2.18
2022-09-12T12:20:40.154Z,1.94
2022-09-12T12:21:49.123Z,2.15
2022-09-12T12:22:53.299Z,2.04
2022-09-12T12:24:12.237Z,1.84
2022-09-12T12:25:21.893Z,1.94
2022-09-12T12:26:42.162Z,1.88
2022-09-12T12:27:58.634Z,1.77
2022-09-12T12:29:01.486Z,2.10
2022-09-12T12:30:08.400Z,2.26
2022-09-12T12:31:11.395Z,2.50
2022-09-12T12:32:20.883Z,2.26
2022-09-12T12:33:30.181Z,2.02
2022-09-12T12:34:46.489Z,2.57
2022-09-12T12:36:04.558Z,2.68
2022-09-12T12:37:24.894Z,2.43
2022-09-12T12:38:36.584Z,2.38
2022-09-12T12:39:43.307Z,2.76
2022-09-12T12:40:46.435Z,2.58
2022-09-12T12:41:49.273Z,2.84
2022-09-12T12:43:04.097Z,2.46
2022-09-12T12:44:46.645Z,2.47
2022-09-12T12:45:53.110Z,1.93
2022-09-12T12:47:22.692Z,2.41
2022-09-12T12:48:25.553Z,2.09
2022-09-12T12:49:29.583Z,2.06
2022-09-12T12:50:32.631Z,2.09
2022-09-12T12:52:03.273Z,2.36
2022-09-12T12:54:30.712Z,2.20
2022-09-12T12:55:39.509Z,2.09
2022-09-12T12:56:43.486Z,1.83
2022-09-12T12:57:50.065Z,1.74
2022-09-12T12:59:02.150Z,1.94
2022-09-12T13:00:11.447Z,2.06
2022-09-12T13:01:22.191Z,1.43
2022-09-12T13:02:32.163Z,1.80
2022-09-12T13:03:47.828Z,1.62
2022-09-12T13:04:52.093Z,1.77
2022-09-12T13:05:58.568Z,1.76
2022-09-12T13:07:08.578Z,2.02
2022-09-12T13:08:18.318Z,1.72
2022-09-12T13:09:33.946Z,1.97
2022-09-12T13:10:38.499Z,1.69
2022-09-12T13:11:41.482Z,1.64
2022-09-12T13:12:47.023Z,1.37
2022-09-12T13:13:56.408Z,1.94
2022-09-12T13:15:01.385Z,1.47
2022-09-12T13:16:04.704Z,1.61
2022-09-12T13:17:09.682Z,1.66
2022-09-12T13:18:22.630Z,1.36
2022-09-12T13:19:28.966Z,1.46
2022-09-12T13:20:35.981Z,1.64
2022-09-12T13:21:38.974Z,1.33
2022-09-12T13:22:44.770Z,1.99
2022-09-12T13:24:02.312Z,1.53
2022-09-12T13:25:36.062Z,1.75
2022-09-12T13:26:46.410Z,2.01
2022-09-12T13:28:05.664Z,1.52
2022-09-12T13:29:14.795Z,1.59
2022-09-12T13:30:19.572Z,1.88
2022-09-12T13:31:25.398Z,1.51
2022-09-12T13:32:28.384Z,1.64
2022-09-12T13:33:40.780Z,1.52
2022-09-12T13:35:08.489Z,1.34
2022-09-12T13:36:33.028Z,1.70
2022-09-12T13:37:55.990Z,1.37
2022-09-12T13:39:21.613Z,1.30
2022-09-12T13:40:40.894Z,1.37
2022-09-12T13:42:03.887Z,1.52
2022-09-12T13:43:15.479Z,1.68
2022-09-12T13:44:21.237Z,1.28
2022-09-12T13:45:29.179Z,1.66
2022-09-12T13:46:34.077Z,1.43
2022-09-12T13:47:43.568Z,1.93
2022-09-12T13:48:46.557Z,1.50
2022-09-12T13:49:49.948Z,1.76
2022-09-12T13:50:55.561Z,1.68
2022-09-12T13:52:05.108Z,1.84
2022-09-12T13:53:14.331Z,1.81
2022-09-12T13:54:23.858Z,2.03
2022-09-12T13:55:28.624Z,1.92
2022-09-12T13:56:31.965Z,1.44
2022-09-12T13:57:40.727Z,1.46
2022-09-12T13:58:56.618Z,1.92
2022-09-12T14:00:02.458Z,1.70
2022-09-12T14:01:15.929Z,1.51
2022-09-12T14:02:20.711Z,1.60
2022-09-12T14:03:52.432Z,1.89
2022-09-12T14:05:10.871Z,1.81
2022-09-12T14:06:15.823Z,1.87
2022-09-12T14:07:24.609Z,1.81
2022-09-12T14:08:27.478Z,1.92
2022-09-12T14:09:33.989Z,1.89
2022-09-12T14:10:39.317Z,1.63
2022-09-12T14:11:42.715Z,1.64
2022-09-12T14:12:47.415Z,1.51
2022-09-12T14:13:52.025Z,1.83
2022-09-12T14:14:54.944Z,1.65
2022-09-12T14:15:59.196Z,1.63
2022-09-12T14:17:23.786Z,1.76
2022-09-12T14:18:34.939Z,1.58
2022-09-12T14:19:38.005Z,1.52
2022-09-12T14:20:42.222Z,1.69
2022-09-12T14:21:45.879Z,1.39
2022-09-12T14:22:51.336Z,1.11
2022-09-12T14:23:54.640Z,1.72
2022-09-12T14:24:59.033Z,1.23
2022-09-12T14:26:05.091Z,1.45
2022-09-12T14:27:09.920Z,1.24
2022-09-12T14:28:15.299Z,1.39
2022-09-12T14:29:19.670Z,1.59
2022-09-12T14:30:26.163Z,1.52
2022-09-12T14:31:35.397Z,1.43
2022-09-12T14:32:38.240Z,1.36
2022-09-12T14:33:55.801Z,1.48
2022-09-12T14:35:14.050Z,1.57
2022-09-12T14:36:22.258Z,1.63
2022-09-12T14:37:25.200Z,1.62
2022-09-12T14:39:54.073Z,1.61
2022-09-12T14:41:03.568Z,1.39
2022-09-12T14:42:18.244Z,1.71
2022-09-12T14:43:39.712Z,1.47
2022-09-12T14:44:46.395Z,1.51
2022-09-12T14:46:04.358Z,1.78
2022-09-12T14:47:14.085Z,1.92
2022-09-12T14:48:18.843Z,2.05
2022-09-12T14:49:33.988Z,1.95
2022-09-12T14:50:37.523Z,1.91
2022-09-12T14:51:51.486Z,2.09
2022-09-12T14:53:05.672Z,2.02
2022-09-12T14:54:30.745Z,2.76
2022-09-12T14:55:36.851Z,2.90
2022-09-12T14:56:42.815Z,2.44
2022-09-12T14:57:47.376Z,2.69
2022-09-12T14:58:50.309Z,2.79
2022-09-12T14:59:54.169Z,2.42
2022-09-12T15:01:01.417Z,2.76
2022-09-12T15:02:23.039Z,2.50
2022-09-12T15:03:32.793Z,2.55
2022-09-12T15:04:41.480Z,2.46
2022-09-12T15:05:50.743Z,2.16
2022-09-12T15:06:54.502Z,2.07
2022-09-12T15:08:01.676Z,2.09
2022-09-12T15:09:10.468Z,2.69
2022-09-12T15:10:24.628Z,2.28
2022-09-12T15:11:28.105Z,2.10
2022-09-12T15:12:31.182Z,2.27
2022-09-12T15:13:39.393Z,2.29
2022-09-12T15:14:42.245Z,2.08
2022-09-12T15:15:47.937Z,2.17
2022-09-12T15:16:50.930Z,2.23